Time;durP1;ratioP1;P1;durP2;ratioP2;P2;SDS_P1;SDS_P2;PMS_P1;PMS_P2;Temp;Humidity;BMP_temperature;BMP_pressure;BME280_temperature;BME280_humidity;BME280_pressure;Samples;Min_cycle;Max_cycle;Signal;HPM_P1;HPM_P2
2022/07/01 00:02:09;;;;;;;0.50;0.40;;;;;;;;;;5014567;28;20745;-68
2022/07/01 00:04:43;;;;;;;0.40;0.40;;;;;;;;;;5006454;28;20228;-69
2022/07/01 00:07:11;;;;;;;0.77;0.60;;;;;;;;;;5011354;28;20205;-68
2022/07/01 00:09:41;;;;;;;0.20;0.20;;;;;;;;;;5009670;28;20215;-68
2022/07/01 00:12:09;;;;;;;0.53;0.30;;;;;;;;;;5003384;28;20213;-68
2022/07/01 00:14:37;;;;;;;0.47;0.47;;;;;;;;;;5006892;28;20231;-69
2022/07/01 00:17:05;;;;;;;0.67;0.30;;;;;;;;;;5016084;28;20228;-68
2022/07/01 00:19:33;;;;;;;0.50;0.50;;;;;;;;;;5016153;28;20208;-69
2022/07/01 00:22:01;;;;;;;0.30;0.30;;;;;;;;;;5012253;28;20276;-69
2022/07/01 00:24:29;;;;;;;0.77;0.50;;;;;;;;;;5019029;28;20224;-68
2022/07/01 00:26:59;;;;;;;0.60;0.50;;;;;;;;;;5009590;28;20245;-69
2022/07/01 00:29:27;;;;;;;0.20;0.20;;;;;;;;;;4998297;28;20213;-69
2022/07/01 00:31:55;;;;;;;0.83;0.30;;;;;;;;;;4998091;28;20219;-68
2022/07/01 00:34:23;;;;;;;0.50;0.50;;;;;;;;;;5013046;28;20302;-68
2022/07/01 00:36:51;;;;;;;0.60;0.50;;;;;;;;;;5001986;28;20584;-68
2022/07/01 00:39:19;;;;;;;0.90;0.60;;;;;;;;;;4998423;28;20217;-68
2022/07/01 00:41:47;;;;;;;0.80;0.50;;;;;;;;;;4998114;28;20271;-68
2022/07/01 00:44:22;;;;;;;0.40;0.40;;;;;;;;;;5009040;28;20227;-69
2022/07/01 00:46:51;;;;;;;0.57;0.50;;;;;;;;;;5017914;28;20287;-69
2022/07/01 00:49:19;;;;;;;0.43;0.43;;;;;;;;;;5017256;28;20568;-68
2022/07/01 00:51:47;;;;;;;0.40;0.40;;;;;;;;;;5017691;28;20213;-68
2022/07/01 00:54:15;;;;;;;2.17;0.53;;;;;;;;;;5017548;28;20228;-69
2022/07/01 00:56:43;;;;;;;0.57;0.57;;;;;;;;;;5017662;28;20232;-68
2022/07/01 00:59:11;;;;;;;0.43;0.43;;;;;;;;;;5017396;28;20267;-68
2022/07/01 01:01:41;;;;;;;2.57;0.63;;;;;;;;;;5017427;28;20243;-70
2022/07/01 01:04:09;;;;;;;0.60;0.60;;;;;;;;;;5001490;28;20264;-70
2022/07/01 01:06:37;;;;;;;0.57;0.57;;;;;;;;;;4997710;28;20690;-69
2022/07/01 01:09:05;;;;;;;0.60;0.60;;;;;;;;;;4997991;28;20236;-69
2022/07/01 01:11:33;;;;;;;0.50;0.50;;;;;;;;;;4997925;28;20205;-67
2022/07/01 01:14:01;;;;;;;0.60;0.60;;;;;;;;;;4997688;28;20589;-69
2022/07/01 01:16:29;;;;;;;3.03;0.77;;;;;;;;;;4999429;28;20750;-69
2022/07/01 01:18:58;;;;;;;0.60;0.60;;;;;;;;;;5001544;28;20208;-68
2022/07/01 01:21:28;;;;;;;0.70;0.70;;;;;;;;;;5001457;28;20636;-69
2022/07/01 01:23:56;;;;;;;0.70;0.70;;;;;;;;;;5012593;28;20232;-69
2022/07/01 01:26:25;;;;;;;0.60;0.60;;;;;;;;;;5001707;28;20208;-68
2022/07/01 01:28:53;;;;;;;2.33;0.67;;;;;;;;;;5001239;28;20213;-70
2022/07/01 01:31:29;;;;;;;0.50;0.50;;;;;;;;;;5001249;28;20741;-68
2022/07/01 01:33:57;;;;;;;0.23;0.23;;;;;;;;;;5011985;28;20230;-69
2022/07/01 01:36:25;;;;;;;0.33;0.33;;;;;;;;;;5012422;28;20259;-70
2022/07/01 01:38:56;;;;;;;0.30;0.30;;;;;;;;;;5001332;28;20259;-66
2022/07/01 01:41:24;;;;;;;0.30;0.30;;;;;;;;;;5001217;28;20209;-66
2022/07/01 01:43:52;;;;;;;0.33;0.33;;;;;;;;;;5008212;28;20316;-66
2022/07/01 01:46:20;;;;;;;0.30;0.30;;;;;;;;;;5020906;28;20244;-66
2022/07/01 01:48:48;;;;;;;0.87;0.40;;;;;;;;;;5020690;28;20219;-65
2022/07/01 01:51:18;;;;;;;3.10;0.40;;;;;;;;;;5020820;28;20232;-66
2022/07/01 01:53:47;;;;;;;0.30;0.30;;;;;;;;;;5020592;28;20695;-65
2022/07/01 01:56:16;;;;;;;0.20;0.20;;;;;;;;;;5020516;28;20211;-65
2022/07/01 01:58:44;;;;;;;0.40;0.40;;;;;;;;;;5020234;28;20263;-66
2022/07/01 02:01:13;;;;;;;0.97;0.40;;;;;;;;;;5020361;28;20236;-67
2022/07/01 02:03:41;;;;;;;0.40;0.40;;;;;;;;;;5007944;28;20237;-65
2022/07/01 02:06:10;;;;;;;0.30;0.30;;;;;;;;;;5000666;28;20205;-66
2022/07/01 02:08:38;;;;;;;0.40;0.40;;;;;;;;;;5000919;28;20243;-66
2022/07/01 02:11:06;;;;;;;0.23;0.23;;;;;;;;;;5000172;28;20248;-65
2022/07/01 02:13:36;;;;;;;0.40;0.40;;;;;;;;;;5020307;28;20252;-66
2022/07/01 02:16:05;;;;;;;0.63;0.37;;;;;;;;;;5029698;28;20667;-66
2022/07/01 02:18:33;;;;;;;1.77;0.40;;;;;;;;;;5021797;28;20307;-67
2022/07/01 02:21:01;;;;;;;0.30;0.30;;;;;;;;;;5026317;28;20283;-66
2022/07/01 02:23:35;;;;;;;1.43;0.30;;;;;;;;;;5028466;28;20224;-67
2022/07/01 02:26:03;;;;;;;0.43;0.40;;;;;;;;;;5022702;28;20231;-67
2022/07/01 02:28:31;;;;;;;0.23;0.23;;;;;;;;;;5002677;28;20618;-66
2022/07/01 02:31:02;;;;;;;0.40;0.37;;;;;;;;;;5005930;28;20236;-68
2022/07/01 02:33:30;;;;;;;0.30;0.30;;;;;;;;;;5012330;28;20270;-69
2022/07/01 02:35:58;;;;;;;0.40;0.40;;;;;;;;;;5012067;28;20676;-66
2022/07/01 02:38:26;;;;;;;0.20;0.20;;;;;;;;;;5011377;28;20271;-66
2022/07/01 02:40:54;;;;;;;0.47;0.47;;;;;;;;;;5011143;28;20287;-68
2022/07/01 02:43:22;;;;;;;0.40;0.40;;;;;;;;;;5012662;28;20700;-66
2022/07/01 02:45:50;;;;;;;0.33;0.30;;;;;;;;;;5010105;28;20236;-60
2022/07/01 02:48:21;;;;;;;0.37;0.37;;;;;;;;;;5018849;28;20201;-59
2022/07/01 02:50:49;;;;;;;0.40;0.40;;;;;;;;;;5016286;28;20342;-60
2022/07/01 02:53:17;;;;;;;0.50;0.50;;;;;;;;;;5016230;28;20711;-60
2022/07/01 02:55:45;;;;;;;0.40;0.40;;;;;;;;;;5013346;28;20663;-60
2022/07/01 02:58:14;;;;;;;0.40;0.40;;;;;;;;;;5014132;28;20232;-59
2022/07/01 03:00:42;;;;;;;0.70;0.30;;;;;;;;;;5018066;28;20236;-60
2022/07/01 03:03:12;;;;;;;0.50;0.50;;;;;;;;;;5018050;28;20538;-59
2022/07/01 03:05:41;;;;;;;0.53;0.53;;;;;;;;;;5014259;28;20771;-62
2022/07/01 03:08:09;;;;;;;0.97;0.40;;;;;;;;;;5011528;28;20228;-62
2022/07/01 03:10:37;;;;;;;0.30;0.30;;;;;;;;;;4999149;28;20978;-62
2022/07/01 03:13:05;;;;;;;0.83;0.50;;;;;;;;;;4999029;28;20267;-62
2022/07/01 03:15:33;;;;;;;0.53;0.53;;;;;;;;;;4999282;28;20212;-62
2022/07/01 03:18:01;;;;;;;0.33;0.33;;;;;;;;;;4999170;28;20292;-61
2022/07/01 03:20:29;;;;;;;0.40;0.40;;;;;;;;;;4999425;28;20209;-60
2022/07/01 03:22:59;;;;;;;1.00;0.30;;;;;;;;;;5004422;28;20248;-60
2022/07/01 03:25:27;;;;;;;0.27;0.27;;;;;;;;;;5001393;28;20240;-60
2022/07/01 03:27:55;;;;;;;1.43;0.30;;;;;;;;;;4999095;28;20639;-59
2022/07/01 03:30:23;;;;;;;2.67;0.40;;;;;;;;;;4999039;28;20239;-59
2022/07/01 03:32:51;;;;;;;0.30;0.30;;;;;;;;;;4998622;28;20854;-59
2022/07/01 03:35:39;;;;;;;0.20;0.20;;;;;;;;;;5016456;28;20243;-59
2022/07/01 03:38:08;;;;;;;0.73;0.20;;;;;;;;;;4998606;28;20303;-60
2022/07/01 03:40:36;;;;;;;1.23;0.50;;;;;;;;;;4999071;28;20209;-60
2022/07/01 03:43:06;;;;;;;0.30;0.30;;;;;;;;;;4999724;28;20320;-60
2022/07/01 03:45:34;;;;;;;0.30;0.30;;;;;;;;;;5018669;28;20247;-60
2022/07/01 03:48:03;;;;;;;0.30;0.30;;;;;;;;;;5018315;28;20212;-60
2022/07/01 03:50:31;;;;;;;0.30;0.30;;;;;;;;;;5018717;28;20211;-60
2022/07/01 03:55:46;;;;;;;0.47;0.40;;;;;;;;;;5018371;28;20203;-60
2022/07/01 03:58:14;;;;;;;0.50;0.50;;;;;;;;;;5018066;28;20660;-61
2022/07/01 04:00:42;;;;;;;0.40;0.40;;;;;;;;;;5017952;28;20737;-60
2022/07/01 04:03:10;;;;;;;0.30;0.30;;;;;;;;;;5009866;28;20225;-60
2022/07/01 04:05:39;;;;;;;0.83;0.50;;;;;;;;;;4998658;28;20264;-60
2022/07/01 04:08:10;;;;;;;0.47;0.47;;;;;;;;;;4998260;28;20267;-60
2022/07/01 04:10:40;;;;;;;0.33;0.33;;;;;;;;;;4998972;28;20300;-60
2022/07/01 04:13:09;;;;;;;0.43;0.43;;;;;;;;;;4998318;28;20280;-60
2022/07/01 04:15:58;;;;;;;0.67;0.30;;;;;;;;;;4999631;28;20209;-60
2022/07/01 04:18:26;;;;;;;0.47;0.47;;;;;;;;;;5002393;28;20216;-60
2022/07/01 04:23:40;;;;;;;0.40;0.40;;;;;;;;;;5012311;28;20264;-60
2022/07/01 04:26:08;;;;;;;0.50;0.50;;;;;;;;;;4998362;28;20240;-61
2022/07/01 04:28:57;;;;;;;0.60;0.60;;;;;;;;;;4998190;28;20237;-62
2022/07/01 04:31:25;;;;;;;1.40;0.70;;;;;;;;;;4997981;28;20236;-62
2022/07/01 04:33:53;;;;;;;0.80;0.70;;;;;;;;;;5004507;28;20254;-62
2022/07/01 04:36:21;;;;;;;0.93;0.80;;;;;;;;;;5009614;28;20232;-62
2022/07/01 04:38:49;;;;;;;1.53;0.90;;;;;;;;;;4998137;28;20271;-62
2022/07/01 04:44:05;;;;;;;0.80;0.80;;;;;;;;;;5006768;28;20259;-62
2022/07/01 04:46:33;;;;;;;2.10;1.90;;;;;;;;;;5017628;28;20243;-62
2022/07/01 04:49:01;;;;;;;2.90;1.60;;;;;;;;;;5017601;28;20215;-62
2022/07/01 04:51:29;;;;;;;2.57;2.23;;;;;;;;;;5019546;28;20243;-62
2022/07/01 04:53:57;;;;;;;4.17;1.17;;;;;;;;;;5021715;28;20239;-62
2022/07/01 04:56:26;;;;;;;1.17;1.07;;;;;;;;;;5013905;28;20228;-62
2022/07/01 04:58:54;;;;;;;0.77;0.70;;;;;;;;;;5012107;28;20231;-61
2022/07/01 05:01:24;;;;;;;0.80;0.80;;;;;;;;;;5012861;28;20233;-62
2022/07/01 05:03:52;;;;;;;0.70;0.70;;;;;;;;;;5012684;28;20224;-62
2022/07/01 05:06:20;;;;;;;4.43;0.90;;;;;;;;;;5012444;28;20209;-63
2022/07/01 05:08:48;;;;;;;1.50;1.33;;;;;;;;;;5007977;28;20212;-62
2022/07/01 05:11:16;;;;;;;0.87;0.83;;;;;;;;;;5001866;28;20209;-60
2022/07/01 05:13:44;;;;;;;0.87;0.77;;;;;;;;;;5021635;28;20258;-62
2022/07/01 05:16:12;;;;;;;0.87;0.87;;;;;;;;;;5001635;28;20642;-58
2022/07/01 05:24:13;;;;;;;0.70;0.50;;;;;;;;;;5016627;28;20216;-60
2022/07/01 05:26:41;;;;;;;1.03;0.70;;;;;;;;;;5014600;28;20204;-60
2022/07/01 05:29:09;;;;;;;0.40;0.40;;;;;;;;;;5019380;28;20204;-58
2022/07/01 05:31:37;;;;;;;0.60;0.60;;;;;;;;;;5020888;28;20255;-58
2022/07/01 05:34:07;;;;;;;1.00;0.70;;;;;;;;;;5033365;28;20219;-58
2022/07/01 05:36:35;;;;;;;2.30;0.67;;;;;;;;;;5024741;28;20211;-57
2022/07/01 05:39:04;;;;;;;1.07;0.97;;;;;;;;;;5018609;28;20260;-57
2022/07/01 05:41:32;;;;;;;0.50;0.50;;;;;;;;;;5001922;28;20255;-57
2022/07/01 05:44:00;;;;;;;3.03;0.57;;;;;;;;;;5020525;28;20746;-58
2022/07/01 05:46:29;;;;;;;4.67;0.70;;;;;;;;;;5019099;28;20212;-58
2022/07/01 05:48:57;;;;;;;0.70;0.70;;;;;;;;;;5008508;28;20200;-58
2022/07/01 05:51:26;;;;;;;0.70;0.70;;;;;;;;;;5001749;28;20209;-58
2022/07/01 05:53:56;;;;;;;0.50;0.50;;;;;;;;;;5000930;28;20235;-58
2022/07/01 05:56:24;;;;;;;0.57;0.53;;;;;;;;;;5017435;28;20232;-58
2022/07/01 05:58:52;;;;;;;0.73;0.40;;;;;;;;;;5020137;28;20243;-58
2022/07/01 06:01:20;;;;;;;0.67;0.60;;;;;;;;;;5016112;28;20229;-58
2022/07/01 06:03:48;;;;;;;0.80;0.80;;;;;;;;;;5011659;28;20255;-58
2022/07/01 06:06:18;;;;;;;1.30;0.90;;;;;;;;;;5018047;28;20291;-60
2022/07/01 06:08:47;;;;;;;0.70;0.70;;;;;;;;;;5014397;28;20205;-59
2022/07/01 06:11:16;;;;;;;2.83;0.60;;;;;;;;;;5011649;28;20231;-60
2022/07/01 06:13:43;;;;;;;0.83;0.83;;;;;;;;;;5011633;28;20224;-59
2022/07/01 06:16:11;;;;;;;0.77;0.77;;;;;;;;;;5011839;28;20259;-60
2022/07/01 06:18:40;;;;;;;3.07;0.90;;;;;;;;;;5010980;28;20235;-60
2022/07/01 06:21:07;;;;;;;2.53;0.70;;;;;;;;;;5014023;28;20235;-63
2022/07/01 06:23:37;;;;;;;1.30;0.90;;;;;;;;;;5016630;28;20311;-61
2022/07/01 06:26:08;;;;;;;1.83;0.67;;;;;;;;;;5016768;28;20216;-60
2022/07/01 06:28:36;;;;;;;1.70;0.90;;;;;;;;;;5016236;28;20266;-61
2022/07/01 06:31:04;;;;;;;1.40;1.00;;;;;;;;;;5017903;28;20734;-61
2022/07/01 06:33:32;;;;;;;0.97;0.97;;;;;;;;;;5015979;28;20252;-61
2022/07/01 06:36:00;;;;;;;4.03;0.90;;;;;;;;;;5020086;28;20205;-61
2022/07/01 06:38:29;;;;;;;0.80;0.60;;;;;;;;;;5013671;28;20243;-60
2022/07/01 06:43:45;;;;;;;1.70;0.43;;;;;;;;;;5015742;28;20231;-60
2022/07/01 06:46:13;;;;;;;0.90;0.60;;;;;;;;;;5013867;28;20612;-62
2022/07/01 06:48:41;;;;;;;0.60;0.50;;;;;;;;;;5015973;28;20200;-61
2022/07/01 06:51:09;;;;;;;0.80;0.70;;;;;;;;;;5013235;28;20248;-59
2022/07/01 06:53:37;;;;;;;2.80;0.80;;;;;;;;;;5017871;28;20224;-59
2022/07/01 06:56:09;;;;;;;0.57;0.50;;;;;;;;;;5016369;28;20216;-59
2022/07/01 06:58:37;;;;;;;1.23;1.00;;;;;;;;;;5015498;28;20282;-60
2022/07/01 07:01:07;;;;;;;1.60;0.57;;;;;;;;;;5016330;28;20656;-60
2022/07/01 07:03:35;;;;;;;1.13;0.80;;;;;;;;;;5015501;28;20224;-60
2022/07/01 07:06:04;;;;;;;4.27;0.90;;;;;;;;;;5015389;28;20320;-60
2022/07/01 07:08:32;;;;;;;1.13;0.63;;;;;;;;;;5017125;28;20235;-60
2022/07/01 07:11:00;;;;;;;0.77;0.50;;;;;;;;;;5015154;28;20200;-60
2022/07/01 07:13:28;;;;;;;1.23;0.60;;;;;;;;;;5015312;28;20260;-60
2022/07/01 07:15:56;;;;;;;2.73;0.70;;;;;;;;;;5010049;28;20212;-60
2022/07/01 07:18:26;;;;;;;1.23;0.63;;;;;;;;;;5009277;28;20196;-60
2022/07/01 07:20:54;;;;;;;1.53;0.80;;;;;;;;;;5009127;28;20232;-60
2022/07/01 07:23:27;;;;;;;1.37;0.60;;;;;;;;;;5010675;28;20715;-60
2022/07/01 07:25:55;;;;;;;2.13;1.53;;;;;;;;;;5011260;28;20282;-59
2022/07/01 07:28:23;;;;;;;2.33;1.60;;;;;;;;;;5009489;28;20242;-59
2022/07/01 07:30:51;;;;;;;1.07;0.70;;;;;;;;;;5009511;28;20211;-60
2022/07/01 07:33:19;;;;;;;2.00;1.17;;;;;;;;;;5016672;28;20227;-59
2022/07/01 07:35:49;;;;;;;1.33;1.00;;;;;;;;;;5020533;28;20196;-60
2022/07/01 07:38:17;;;;;;;1.70;0.90;;;;;;;;;;5013544;28;20205;-60
2022/07/01 07:40:46;;;;;;;0.83;0.83;;;;;;;;;;5001062;28;20311;-60
2022/07/01 07:43:14;;;;;;;2.60;0.60;;;;;;;;;;5005584;28;20225;-60
2022/07/01 07:45:42;;;;;;;0.77;0.60;;;;;;;;;;5010099;28;20613;-60
2022/07/01 07:48:10;;;;;;;0.50;0.50;;;;;;;;;;5011766;28;20254;-59
2022/07/01 07:50:38;;;;;;;0.30;0.30;;;;;;;;;;5009304;28;20250;-60
2022/07/01 07:53:08;;;;;;;1.30;0.50;;;;;;;;;;5011476;28;20275;-59
2022/07/01 07:55:36;;;;;;;0.90;0.40;;;;;;;;;;5013010;28;20201;-60
2022/07/01 07:58:05;;;;;;;0.40;0.40;;;;;;;;;;5010510;28;20266;-60
2022/07/01 08:00:33;;;;;;;0.63;0.50;;;;;;;;;;5007500;28;20252;-60
2022/07/01 08:03:07;;;;;;;1.83;0.77;;;;;;;;;;5008721;28;20695;-61
2022/07/01 08:05:35;;;;;;;2.50;0.87;;;;;;;;;;5001349;28;20201;-61
2022/07/01 08:08:03;;;;;;;0.53;0.50;;;;;;;;;;4998708;28;20216;-61
2022/07/01 08:10:33;;;;;;;0.70;0.50;;;;;;;;;;5011411;28;20215;-61
2022/07/01 08:13:04;;;;;;;1.47;0.73;;;;;;;;;;5017897;28;20228;-60
2022/07/01 08:15:33;;;;;;;3.07;0.70;;;;;;;;;;5002369;28;20297;-61
2022/07/01 08:18:01;;;;;;;1.40;0.63;;;;;;;;;;4998040;28;20213;-61
2022/07/01 08:20:30;;;;;;;2.67;0.60;;;;;;;;;;4998430;28;20260;-61
2022/07/01 08:22:58;;;;;;;2.97;0.80;;;;;;;;;;5003329;28;20665;-61
2022/07/01 08:25:26;;;;;;;2.20;1.10;;;;;;;;;;5001748;28;20240;-61
2022/07/01 08:28:03;;;;;;;1.83;0.60;;;;;;;;;;5014994;28;20730;-61
2022/07/01 08:30:31;;;;;;;0.73;0.60;;;;;;;;;;5017846;28;20664;-61
2022/07/01 08:32:59;;;;;;;0.87;0.70;;;;;;;;;;5017437;28;20214;-61
2022/07/01 08:35:28;;;;;;;0.87;0.50;;;;;;;;;;5020874;28;20664;-61
2022/07/01 08:37:56;;;;;;;0.40;0.40;;;;;;;;;;5008858;28;20297;-61
2022/07/01 08:40:27;;;;;;;1.10;0.60;;;;;;;;;;5008511;28;20220;-61
2022/07/01 08:42:58;;;;;;;2.43;0.73;;;;;;;;;;4997935;28;20204;-61
2022/07/01 08:45:29;;;;;;;0.80;0.50;;;;;;;;;;5017353;28;20208;-61
2022/07/01 08:48:00;;;;;;;1.07;0.63;;;;;;;;;;5016575;28;20216;-61
2022/07/01 08:50:29;;;;;;;0.70;0.60;;;;;;;;;;4997840;28;20575;-61
2022/07/01 08:52:57;;;;;;;1.83;0.60;;;;;;;;;;5002649;28;20231;-62
2022/07/01 08:55:26;;;;;;;3.03;0.70;;;;;;;;;;5008966;28;20228;-61
2022/07/01 08:57:54;;;;;;;2.33;0.60;;;;;;;;;;5009789;28;20244;-61
2022/07/01 09:00:22;;;;;;;2.43;0.70;;;;;;;;;;5010806;28;20259;-61
2022/07/01 09:02:56;;;;;;;2.20;0.70;;;;;;;;;;5009914;28;20671;-61
2022/07/01 09:05:25;;;;;;;0.67;0.60;;;;;;;;;;5008280;28;20211;-61
2022/07/01 09:07:57;;;;;;;0.50;0.50;;;;;;;;;;5008025;28;20575;-61
2022/07/01 09:10:25;;;;;;;1.10;0.70;;;;;;;;;;5008428;28;20255;-61
2022/07/01 09:12:54;;;;;;;2.07;1.00;;;;;;;;;;5009902;28;20295;-61
2022/07/01 09:15:25;;;;;;;1.97;0.43;;;;;;;;;;5008036;28;20209;-61
2022/07/01 09:17:56;;;;;;;2.80;1.23;;;;;;;;;;5010306;28;20258;-61
2022/07/01 09:20:25;;;;;;;1.17;0.80;;;;;;;;;;5008291;28;20240;-61
2022/07/01 09:23:04;;;;;;;1.57;0.70;;;;;;;;;;5011876;28;20215;-61
2022/07/01 09:25:33;;;;;;;2.73;1.67;;;;;;;;;;5009569;28;20196;-61
2022/07/01 09:28:12;;;;;;;1.97;0.60;;;;;;;;;;5014771;28;20208;-62
2022/07/01 09:30:41;;;;;;;2.77;0.80;;;;;;;;;;5008965;28;20694;-60
2022/07/01 09:33:15;;;;;;;0.93;0.70;;;;;;;;;;5016733;28;20569;-60
2022/07/01 09:35:44;;;;;;;2.13;0.60;;;;;;;;;;5017584;28;20197;-60
2022/07/01 09:38:12;;;;;;;6.33;0.60;;;;;;;;;;5011144;28;20204;-60
2022/07/01 09:41:00;;;;;;;3.27;0.67;;;;;;;;;;5011443;28;20223;-60
2022/07/01 09:43:29;;;;;;;4.47;0.97;;;;;;;;;;5012565;28;20585;-59
2022/07/01 09:45:58;;;;;;;2.97;0.93;;;;;;;;;;5020547;28;20266;-59
2022/07/01 09:48:28;;;;;;;3.80;0.77;;;;;;;;;;5008666;28;20201;-60
2022/07/01 09:50:56;;;;;;;1.10;0.80;;;;;;;;;;5000910;28;20213;-59
2022/07/01 09:53:24;;;;;;;2.17;0.80;;;;;;;;;;5013046;28;20582;-59
2022/07/01 09:55:52;;;;;;;4.47;0.90;;;;;;;;;;5000679;28;20641;-58
2022/07/01 09:58:20;;;;;;;1.30;0.50;;;;;;;;;;5000519;28;20244;-59
2022/07/01 10:00:48;;;;;;;2.03;1.23;;;;;;;;;;5002478;28;20240;-60
2022/07/01 10:03:18;;;;;;;2.80;0.73;;;;;;;;;;5011239;28;20225;-60
2022/07/01 10:05:48;;;;;;;5.43;1.00;;;;;;;;;;5000832;28;20209;-60
2022/07/01 10:08:38;;;;;;;2.30;0.93;;;;;;;;;;5002957;28;20700;-61
2022/07/01 10:11:24;;;;;;;1.10;0.53;;;;;;;;;;5020117;28;20626;-61
2022/07/01 10:13:52;;;;;;;0.93;0.60;;;;;;;;;;5013075;28;20259;-60
2022/07/01 10:16:21;;;;;;;4.63;0.90;;;;;;;;;;5020333;28;20231;-60
2022/07/01 10:18:49;;;;;;;1.90;0.77;;;;;;;;;;5016746;28;20236;-60
2022/07/01 10:21:28;;;;;;;1.13;0.80;;;;;;;;;;5000262;28;20229;-60
2022/07/01 10:24:11;;;;;;;0.43;0.43;;;;;;;;;;5007276;28;20228;-60
2022/07/01 10:26:40;;;;;;;0.73;0.50;;;;;;;;;;5012669;28;20200;-60
2022/07/01 10:29:22;;;;;;;1.60;0.50;;;;;;;;;;5000183;28;20209;-60
2022/07/01 10:31:50;;;;;;;0.50;0.50;;;;;;;;;;5001195;28;20660;-59
2022/07/01 10:34:20;;;;;;;1.43;0.60;;;;;;;;;;5013892;28;20246;-59
2022/07/01 10:37:01;;;;;;;0.80;0.60;;;;;;;;;;5004387;28;20259;-60
2022/07/01 10:39:29;;;;;;;3.83;0.90;;;;;;;;;;4999980;28;20727;-60
2022/07/01 10:41:59;;;;;;;1.17;0.60;;;;;;;;;;5006228;28;20278;-60
2022/07/01 10:44:59;;;;;;;1.27;0.53;;;;;;;;;;5010448;28;20255;-59
2022/07/01 10:47:27;;;;;;;1.53;0.70;;;;;;;;;;5010048;28;20242;-60
2022/07/01 10:49:56;;;;;;;0.93;0.73;;;;;;;;;;5012142;28;20283;-58
2022/07/01 10:52:26;;;;;;;0.63;0.63;;;;;;;;;;5010291;28;20223;-61
2022/07/01 10:54:55;;;;;;;1.80;0.70;;;;;;;;;;5012534;28;20629;-58
2022/07/01 10:57:27;;;;;;;0.80;0.80;;;;;;;;;;5010382;28;20259;-61
2022/07/01 10:59:56;;;;;;;1.33;0.40;;;;;;;;;;5007952;28;20231;-58
2022/07/01 11:02:25;;;;;;;0.77;0.70;;;;;;;;;;5010569;28;20718;-58
2022/07/01 11:04:54;;;;;;;0.63;0.53;;;;;;;;;;5004486;28;20225;-58
2022/07/01 11:07:25;;;;;;;1.13;0.57;;;;;;;;;;4999315;28;20205;-58
2022/07/01 11:09:54;;;;;;;0.97;0.70;;;;;;;;;;4999715;28;20209;-58
2022/07/01 11:12:23;;;;;;;1.20;0.30;;;;;;;;;;4999295;28;20240;-58
2022/07/01 11:14:51;;;;;;;1.37;0.50;;;;;;;;;;4999143;28;20265;-59
2022/07/01 11:17:20;;;;;;;0.93;0.47;;;;;;;;;;4999326;28;20213;-58
2022/07/01 11:19:49;;;;;;;1.87;0.80;;;;;;;;;;4999946;28;20214;-58
2022/07/01 11:22:20;;;;;;;1.20;0.57;;;;;;;;;;5010880;28;20236;-58
2022/07/01 11:24:52;;;;;;;1.93;0.60;;;;;;;;;;5012350;28;20715;-57
2022/07/01 11:27:22;;;;;;;1.30;0.50;;;;;;;;;;4999120;28;20204;-58
2022/07/01 11:29:52;;;;;;;1.33;0.63;;;;;;;;;;5011026;28;20235;-58
2022/07/01 11:32:25;;;;;;;0.50;0.50;;;;;;;;;;5011583;28;20228;-58
2022/07/01 11:34:53;;;;;;;1.10;0.50;;;;;;;;;;5014839;28;20255;-58
2022/07/01 11:40:07;;;;;;;0.50;0.50;;;;;;;;;;5012448;28;20235;-59
2022/07/01 11:42:37;;;;;;;2.53;1.17;;;;;;;;;;5010979;28;20224;-60
2022/07/01 11:45:21;;;;;;;0.50;0.50;;;;;;;;;;5011924;28;20208;-60
2022/07/01 11:47:49;;;;;;;1.83;0.70;;;;;;;;;;5010038;28;20202;-60
2022/07/01 11:50:17;;;;;;;0.30;0.30;;;;;;;;;;5010818;28;20228;-59
2022/07/01 11:52:45;;;;;;;0.87;0.60;;;;;;;;;;5011680;28;20197;-60
2022/07/01 11:55:13;;;;;;;0.70;0.60;;;;;;;;;;5010340;28;20208;-60
2022/07/01 11:58:02;;;;;;;0.90;0.80;;;;;;;;;;5006078;28;20327;-60
2022/07/01 12:00:33;;;;;;;1.90;0.70;;;;;;;;;;5010288;28;20216;-60
2022/07/01 12:03:02;;;;;;;1.53;0.70;;;;;;;;;;5011243;28;20232;-59
2022/07/01 12:05:30;;;;;;;1.50;0.63;;;;;;;;;;4998490;28;20208;-59
2022/07/01 12:08:05;;;;;;;1.40;0.70;;;;;;;;;;5008345;28;20203;-59
2022/07/01 12:10:33;;;;;;;0.97;0.60;;;;;;;;;;5011741;28;20212;-59
2022/07/01 12:13:01;;;;;;;1.20;0.60;;;;;;;;;;5012252;28;20249;-60
2022/07/01 12:15:30;;;;;;;1.83;0.60;;;;;;;;;;5009876;28;20251;-58
2022/07/01 12:18:05;;;;;;;0.60;0.47;;;;;;;;;;5009065;28;20219;-58
2022/07/01 12:20:33;;;;;;;2.47;0.80;;;;;;;;;;5013326;28;20227;-58
2022/07/01 12:23:14;;;;;;;0.53;0.47;;;;;;;;;;5008660;28;20262;-58
2022/07/01 12:25:46;;;;;;;0.93;0.50;;;;;;;;;;5008774;28;20250;-58
2022/07/01 12:28:24;;;;;;;0.63;0.50;;;;;;;;;;5010204;28;20706;-58
2022/07/01 12:31:01;;;;;;;0.83;0.50;;;;;;;;;;5006726;28;20228;-58
2022/07/01 12:33:29;;;;;;;2.50;0.87;;;;;;;;;;4999079;28;20212;-58
2022/07/01 12:35:57;;;;;;;2.97;0.60;;;;;;;;;;5008295;28;20265;-59
2022/07/01 12:38:25;;;;;;;3.23;0.80;;;;;;;;;;5007659;28;20205;-59
2022/07/01 12:40:53;;;;;;;1.47;0.90;;;;;;;;;;5014814;28;20232;-59
2022/07/01 12:43:29;;;;;;;0.67;0.50;;;;;;;;;;5003324;28;20594;-58
2022/07/01 12:45:58;;;;;;;1.63;0.50;;;;;;;;;;5010654;28;20215;-57
2022/07/01 12:48:27;;;;;;;1.70;0.60;;;;;;;;;;5010258;28;20694;-58
2022/07/01 12:50:56;;;;;;;2.03;0.50;;;;;;;;;;5011325;28;20223;-58
2022/07/01 12:53:25;;;;;;;1.30;0.80;;;;;;;;;;5009165;28;20226;-58
2022/07/01 12:55:54;;;;;;;1.80;0.50;;;;;;;;;;5008911;28;20591;-58
2022/07/01 12:58:23;;;;;;;2.00;0.60;;;;;;;;;;5008497;28;20272;-58
2022/07/01 13:00:52;;;;;;;0.60;0.40;;;;;;;;;;4999758;28;20756;-58
2022/07/01 13:03:22;;;;;;;4.13;0.70;;;;;;;;;;5007662;28;20688;-58
2022/07/01 13:05:52;;;;;;;1.70;0.50;;;;;;;;;;4997772;28;20684;-60
2022/07/01 13:08:20;;;;;;;0.70;0.50;;;;;;;;;;4997706;28;20267;-60
2022/07/01 13:10:49;;;;;;;1.33;0.63;;;;;;;;;;4997965;28;20208;-60
2022/07/01 13:13:18;;;;;;;0.47;0.40;;;;;;;;;;5000839;28;20288;-60
2022/07/01 13:15:45;;;;;;;1.10;0.63;;;;;;;;;;5001802;28;20211;-60
2022/07/01 13:18:14;;;;;;;1.47;0.60;;;;;;;;;;5001749;28;20214;-61
2022/07/01 13:20:43;;;;;;;0.83;0.60;;;;;;;;;;5001630;28;20244;-60
2022/07/01 13:23:12;;;;;;;0.53;0.53;;;;;;;;;;5009902;28;20244;-60
2022/07/01 13:25:40;;;;;;;0.87;0.60;;;;;;;;;;5001476;28;20209;-61
2022/07/01 13:28:08;;;;;;;3.53;0.67;;;;;;;;;;5001661;28;20209;-62
2022/07/01 13:30:37;;;;;;;0.90;0.73;;;;;;;;;;5001410;28;20561;-61
2022/07/01 13:33:06;;;;;;;0.97;0.67;;;;;;;;;;5001309;28;20266;-62
2022/07/01 13:35:35;;;;;;;2.20;0.60;;;;;;;;;;5019978;28;20655;-60
2022/07/01 13:38:03;;;;;;;0.80;0.50;;;;;;;;;;5001479;28;20297;-63
2022/07/01 13:40:32;;;;;;;1.23;0.50;;;;;;;;;;5001005;28;20219;-62
2022/07/01 13:43:00;;;;;;;0.47;0.40;;;;;;;;;;5001052;28;20271;-62
2022/07/01 13:45:28;;;;;;;2.27;0.43;;;;;;;;;;5020737;28;20289;-62
2022/07/01 13:47:56;;;;;;;1.20;0.80;;;;;;;;;;5020412;28;20211;-62
2022/07/01 13:50:24;;;;;;;2.20;0.50;;;;;;;;;;5020781;28;20244;-61
2022/07/01 13:52:52;;;;;;;1.07;0.47;;;;;;;;;;5020434;28;20213;-62
2022/07/01 13:55:20;;;;;;;1.10;0.40;;;;;;;;;;5020363;28;20209;-62
2022/07/01 13:57:50;;;;;;;1.17;0.60;;;;;;;;;;5020499;28;20258;-62
2022/07/01 14:00:18;;;;;;;3.40;0.53;;;;;;;;;;5020723;28;20302;-62
2022/07/01 14:02:46;;;;;;;2.00;0.50;;;;;;;;;;5013910;28;20309;-62
2022/07/01 14:05:14;;;;;;;2.53;0.50;;;;;;;;;;5012079;28;20234;-62
2022/07/01 14:07:43;;;;;;;3.00;1.13;;;;;;;;;;5010475;28;20232;-62
2022/07/01 14:10:11;;;;;;;0.53;0.40;;;;;;;;;;5008242;28;20216;-62
2022/07/01 14:12:39;;;;;;;0.67;0.50;;;;;;;;;;5000775;28;20298;-62
2022/07/01 14:15:09;;;;;;;2.40;0.40;;;;;;;;;;5000726;28;20247;-62
2022/07/01 14:17:38;;;;;;;3.10;0.43;;;;;;;;;;5000522;28;20237;-61
2022/07/01 14:20:07;;;;;;;1.47;0.60;;;;;;;;;;5000171;28;20252;-61
2022/07/01 14:22:35;;;;;;;0.63;0.63;;;;;;;;;;5000513;28;20726;-62
2022/07/01 14:25:03;;;;;;;1.23;0.60;;;;;;;;;;5009306;28;20672;-62
2022/07/01 14:27:31;;;;;;;0.87;0.60;;;;;;;;;;5000396;28;20240;-62
2022/07/01 14:29:59;;;;;;;0.67;0.40;;;;;;;;;;5000460;28;20249;-62
2022/07/01 14:32:29;;;;;;;1.50;0.47;;;;;;;;;;5000222;28;20206;-61
2022/07/01 14:34:57;;;;;;;0.30;0.30;;;;;;;;;;5017879;28;20269;-62
2022/07/01 14:37:25;;;;;;;4.27;0.70;;;;;;;;;;5000260;28;20269;-62
2022/07/01 14:39:56;;;;;;;0.97;0.70;;;;;;;;;;4999909;28;20215;-61
2022/07/01 14:42:25;;;;;;;0.77;0.50;;;;;;;;;;4999984;28;20585;-62
2022/07/01 14:44:53;;;;;;;1.17;0.47;;;;;;;;;;5015440;28;20237;-62
2022/07/01 14:47:22;;;;;;;0.43;0.43;;;;;;;;;;5019173;28;20689;-62
2022/07/01 14:49:53;;;;;;;0.53;0.50;;;;;;;;;;5019415;28;20253;-62
2022/07/01 14:52:22;;;;;;;0.57;0.40;;;;;;;;;;5019617;28;20260;-62
2022/07/01 14:54:50;;;;;;;1.47;0.60;;;;;;;;;;4999847;28;20239;-62
2022/07/01 14:57:19;;;;;;;0.70;0.40;;;;;;;;;;4999382;28;20284;-62
2022/07/01 14:59:47;;;;;;;1.57;0.70;;;;;;;;;;4999707;28;20591;-62
2022/07/01 15:02:15;;;;;;;0.60;0.43;;;;;;;;;;5012481;28;20206;-61
2022/07/01 15:04:43;;;;;;;1.53;0.40;;;;;;;;;;4999655;28;20274;-61
2022/07/01 15:07:13;;;;;;;0.87;0.40;;;;;;;;;;4999312;28;20205;-62
2022/07/01 15:09:41;;;;;;;1.10;0.70;;;;;;;;;;4999565;28;20668;-61
2022/07/01 15:12:09;;;;;;;1.60;0.50;;;;;;;;;;4999207;28;20250;-61
2022/07/01 15:14:37;;;;;;;0.60;0.47;;;;;;;;;;4999334;28;20266;-62
2022/07/01 15:17:06;;;;;;;3.13;0.70;;;;;;;;;;4999298;28;20215;-61